INFORMAÇÕES METEOROLÓGICAS
METAR FOR SBCJ
ADDS - METARS form results

(0112 UTC 25 May 2018)
Data provider http://aviationweather.gov/adds/metars/
 
Forecast for: SBCJ (CARAJAS/MARABA , BR)
Text: TAF SBCJ 242200Z 2500/2512 15005KT CAVOK TN20/2506Z TX24/2512Z
Forecast period: 0000 to 0400 UTC 25 May 2018
Forecast type: FROM: standard forecast or significant change
Winds: from the SSE (150 degrees) at 6 MPH (5 knots; 2.6 m/s)
Visibility: 6 or more miles (10+ km)
Clouds: not forecast
Weather: no significant weather forecast for this period
Text: BECMG 2504/2506 00000KT SCT010 RMK PEN
Forecast period: 0400 to 1200 UTC 25 May 2018
Forecast type: BECOMING: Conditions expected to become as follows by 0600 UTC 25 May 2018
Winds: calm
Visibility: 6 or more miles (10+ km)
Clouds: scattered clouds at 1000 feet AGL
Weather: no significant weather forecast for this period

 MAPA DO AEROPORTO

 INFORMAÇÕES DA PISTA
Pista 10 Tamanho da pista 6562 ft Largura da pista 148 ft
Elevação da pista 0 ft Ranhura da pista 0 ft Proa da pista 0
Pista 28 Tamanho da pista 6562 ft Largura da pista 148 ft
Elevação da pista 0 ft Ranhura da pista 0 ft Proa da pista 0

 FREQUÊNCIAS DO AEROPORTO
Tipo AFIS Nome RDO Frequência 131.7 MHZ

 AUXÍLIOS DE NAVEGAÇÃO PRÓXIMOS AO AEROPORTO
Tipo VOR-DME Nome Carajas Frequência 112400 KHZ
Tipo NDB Nome Carajas Frequência 170 KHZ





Powered by Virtual Airlines Manager [v2.6.2]